Data for 01/19/2005

Time Sea-Level Adjusted Pressure Absolute Pressure Temperature Relative Humidity Dew Point   
(mb) (inHg) (mb) (inHg) (C) (F) (%) (C) (F)
00:05 1025 30.27 855 25.25 8.3 46.9 62 1.5 34.8
00:10 1025 30.27 854 25.22 8.1 46.7 63 1.4 34.6
00:15 1025 30.27 854 25.22 8.3 46.9 62 1.4 34.5
00:20 1025 30.27 855 25.25 8.2 46.7 61 1.2 34.1
00:25 1025 30.27 854 25.22 8.3 47 60 1.1 34.1
00:30 1025 30.27 854 25.22 8.4 47.1 62 1.6 34.9
00:35 1025 30.27 854 25.22 7.8 46 65 1.6 34.8
00:40 1025 30.27 854 25.22 7.6 45.6 65 1.4 34.6
00:45 1025 30.27 854 25.22 7.8 46.1 62 1 33.8
00:50 1025 30.27 854 25.22 8.6 47.5 59 1.1 34.1
00:55 1025 30.27 854 25.22 9.1 48.3 58 1.3 34.4
01:00 1025 30.27 854 25.22 9 48.1 59 1.3 34.4
01:05 1025 30.27 854 25.22 8.7 47.6 60 1.3 34.3
01:10 1025 30.27 854 25.22 8.5 47.3 60 1.1 34
01:15 1025 30.27 854 25.22 8.6 47.5 59 1 33.8
01:20 1025 30.27 854 25.22 8.7 47.7 59 1.3 34.3
01:25 1025 30.27 854 25.22 8.6 47.5 60 1.3 34.4
01:30 1025 30.27 854 25.22 8.4 47.2 61 1.3 34.3
01:35 1025 30.27 854 25.22 8.3 46.9 60 1.1 33.9
01:40 1025 30.27 854 25.22 8.2 46.8 60 0.9 33.7
01:45 1024 30.24 854 25.22 8.4 47.1 58 0.6 33
01:50 1024 30.24 854 25.22 8.6 47.5 58 0.7 33.3
01:55 1024 30.24 853 25.19 8.6 47.5 57 0.7 33.3
02:00 1024 30.24 853 25.19 8.4 47.1 58 0.7 33.2
02:05 1024 30.24 853 25.19 8.1 46.5 60 0.7 33.3
02:10 1024 30.24 853 25.19 7.8 46 60 0.6 33.1
02:15 1024 30.24 853 25.19 7.8 46.1 59 0.4 32.7
02:20 1024 30.24 853 25.19 8 46.4 59 0.5 32.8
02:25 1024 30.24 853 25.19 8.1 46.6 58 0.3 32.5
02:30 1024 30.24 853 25.19 8.2 46.8 57 0.3 32.5
02:35 1024 30.24 854 25.22 8.4 47.1 56 0.1 32.2
02:40 1024 30.24 854 25.22 8.6 47.4 56 0.3 32.6
02:45 1025 30.27 854 25.22 8.4 47.1 56 0.3 32.5
02:50 1025 30.27 854 25.22 8.6 47.5 54 -0.1 31.9
02:55 1025 30.27 854 25.22 9 48.1 54 0.3 32.5
03:00 1025 30.27 854 25.22 8.9 48 55 0.5 32.9
03:05 1025 30.27 854 25.22 8.5 47.3 57 0.4 32.8
03:10 1025 30.27 854 25.22 8.6 47.5 55 -0 32
03:15 1025 30.27 854 25.22 8.9 48.1 54 0.1 32.2
03:20 1025 30.27 854 25.22 9 48.2 54 0.2 32.3
03:25 1024 30.24 854 25.22 9.2 48.6 52 -0.1 31.9
03:30 1024 30.24 853 25.19 9.4 49 51 -0.2 31.7
03:35 1024 30.24 853 25.19 9.6 49.2 51 -0.2 31.7
03:40 1024 30.24 853 25.19 9.6 49.2 50 -0.3 31.4
03:45 1024 30.24 853 25.19 9.6 49.2 50 -0.3 31.5
03:50 1024 30.24 853 25.19 9.5 49.1 50 -0.5 31.1
03:55 1024 30.24 853 25.19 9.4 48.9 49 -0.6 30.9
04:00 1024 30.24 853 25.19 9.3 48.7 49 -0.7 30.7
04:05 1024 30.24 854 25.22 9.3 48.8 49 -0.7 30.7
04:10 1024 30.24 854 25.22 9.4 48.8 50 -0.6 31
04:15 1024 30.24 854 25.22 9.2 48.5 51 -0.4 31.3
04:20 1024 30.24 854 25.22 9 48.2 52 -0.3 31.4
04:25 1024 30.24 854 25.22 8.5 47.2 55 -0.1 31.8
04:30 1025 30.27 854 25.22 8.1 46.6 55 -0.4 31.3
04:35 1025 30.27 854 25.22 8.1 46.6 55 -0.3 31.4
04:40 1025 30.27 854 25.22 7.9 46.3 56 -0.3 31.5
04:45 1025 30.27 854 25.22 7.7 45.8 57 -0.2 31.6
04:50 1025 30.27 854 25.22 7.5 45.5 57 -0.5 31.2
04:55 1025 30.27 854 25.22 7.6 45.7 55 -0.9 30.4
05:00 1025 30.27 855 25.25 7.9 46.1 55 -0.6 30.9
05:05 1026 30.3 855 25.25 7.5 45.5 57 -0.5 31.2
05:10 1026 30.3 855 25.25 7.6 45.7 54 -1 30.2
05:15 1026 30.3 855 25.25 8 46.4 54 -0.6 30.9
05:20 1026 30.3 855 25.25 7.9 46.3 55 -0.5 31.1
05:25 1026 30.3 855 25.25 7.9 46.3 55 -0.5 31
05:30 1025 30.27 855 25.25 7.8 46.1 56 -0.4 31.2
05:35 1025 30.27 855 25.25 7.7 45.8 56 -0.4 31.2
05:40 1025 30.27 854 25.22 7.6 45.7 56 -0.6 30.8
05:45 1025 30.27 854 25.22 7.9 46.2 54 -0.7 30.7
05:50 1025 30.27 854 25.22 8.2 46.8 53 -0.7 30.7
05:55 1025 30.27 854 25.22 8.4 47.1 52 -0.9 30.4
06:00 1025 30.27 854 25.22 9 48.1 50 -0.8 30.5
06:05 1025 30.27 854 25.22 9.3 48.8 50 -0.5 31
06:10 1025 30.27 854 25.22 9.4 49 49 -0.6 31
06:15 1025 30.27 854 25.22 9.7 49.4 50 -0.3 31.4
06:20 1025 30.27 854 25.22 9.8 49.7 48 -0.5 31.1
06:25 1025 30.27 854 25.22 10.1 50.3 48 -0.5 31.2
06:30 1025 30.27 854 25.22 10.3 50.5 47 -0.4 31.3
06:35 1025 30.27 854 25.22 10.3 50.5 48 -0.3 31.4
06:40 1025 30.27 854 25.22 10.2 50.4 48 -0.3 31.4
06:45 1025 30.27 854 25.22 10.4 50.8 47 -0.5 31.1
06:50 1024 30.24 854 25.22 10.2 50.4 48 -0.3 31.5
06:55 1025 30.27 854 25.22 10.3 50.6 47 -0.4 31.4
07:00 1025 30.27 854 25.22 10.3 50.5 47 -0.6 30.9
07:05 1025 30.27 854 25.22 10 50.1 49 -0.1 31.9
07:10 1025 30.27 854 25.22 9.5 49.1 51 -0.2 31.7
07:15 1025 30.27 854 25.22 9.8 49.7 48 -0.5 31.1
07:20 1025 30.27 854 25.22 9.9 49.8 48 -0.5 31.2
07:25 1025 30.27 854 25.22 9.6 49.3 49 -0.6 30.9
07:30 1025 30.27 854 25.22 9.3 48.7 49 -0.9 30.5
07:35 1025 30.27 855 25.25 9.3 48.7 48 -1 30.2
07:40 1025 30.27 855 25.25 9.5 49.1 46 -1.5 29.3
07:45 1025 30.27 855 25.25 9.8 49.7 45 -1.6 29.2
07:50 1025 30.27 854 25.22 9.9 49.8 46 -1.2 29.8
07:55 1025 30.27 855 25.25 9.5 49.1 45 -1.7 28.9
08:00 1025 30.27 854 25.22 9.6 49.3 46 -1.5 29.3
08:05 1025 30.27 854 25.22 9.7 49.4 46 -1.2 29.8
08:10 1025 30.27 854 25.22 9.5 49.1 46 -1.6 29.1
08:15 1025 30.27 854 25.22 9.3 48.8 48 -1.2 29.9
08:20 1025 30.27 854 25.22 9.2 48.6 48 -1.3 29.7
08:25 1025 30.27 854 25.22 8.9 48 47 -1.7 28.9
08:30 1025 30.27 854 25.22 9.4 49 47 -1.2 29.8
08:35 1025 30.27 854 25.22 9.3 48.7 47 -1.5 29.3
08:40 1025 30.27 854 25.22 9.5 49.2 47 -1.3 29.7
08:45 1025 30.27 854 25.22 9.8 49.6 46 -1.3 29.7
08:50 1025 30.27 854 25.22 10 50 44 -1.5 29.3
08:55 1025 30.27 854 25.22 10.2 50.4 44 -1.3 29.6
09:00 1025 30.27 854 25.22 10.6 51.1 43 -1.4 29.5
09:05 1025 30.27 854 25.22 10.6 51 43 -1.4 29.6
09:10 1025 30.27 854 25.22 10.5 50.9 46 -0.6 30.8
09:15 1024 30.24 854 25.22 10.2 50.3 46 -0.8 30.5
09:20 1024 30.24 854 25.22 9.9 49.9 47 -0.8 30.5
09:25 1024 30.24 854 25.22 9.8 49.7 48 -0.7 30.7
09:30 1024 30.24 854 25.22 9.9 49.8 47 -0.7 30.7
09:35 1025 30.27 854 25.22 10.2 50.3 47 -0.6 30.9
09:40 1025 30.27 854 25.22 10.1 50.2 48 -0.3 31.5
09:45 1025 30.27 854 25.22 10.1 50.1 48 -0.5 31.1
09:50 1025 30.27 854 25.22 10.4 50.7 47 -0.5 31
09:55 1025 30.27 854 25.22 10.7 51.2 46 -0.4 31.3
10:00 1025 30.27 854 25.22 10.6 51.1 46 -0.4 31.3
10:05 1025 30.27 854 25.22 10.8 51.4 45 -0.5 31.1
10:10 1025 30.27 854 25.22 11.2 52.1 44 -0.6 31
10:15 1025 30.27 854 25.22 11.2 52.1 45 -0.2 31.6
10:20 1025 30.27 854 25.22 10.9 51.7 46 -0.1 31.7
10:25 1025 30.27 854 25.22 11.2 52.2 45 -0.2 31.7
10:30 1025 30.27 854 25.22 11.6 52.9 44 -0.3 31.4
10:35 1025 30.27 854 25.22 12 53.6 43 -0.1 31.8
10:40 1025 30.27 854 25.22 12 53.7 43 0 32
10:45 1024 30.24 854 25.22 12.3 54.1 42 -0.3 31.5
10:50 1025 30.27 854 25.22 12.7 54.8 41 -0.2 31.7
10:55 1024 30.24 854 25.22 12.9 55.2 40 -0.4 31.3
11:00 1025 30.27 854 25.22 13.1 55.5 40 -0.1 31.7
11:05 1025 30.27 854 25.22 13.6 56.4 40 0.2 32.3
11:10 1024 30.24 854 25.22 13.5 56.4 40 0.2 32.4
11:15 1024 30.24 854 25.22 13.4 56.2 40 0 32
11:20 1024 30.24 854 25.22 14 57.2 38 0.1 32.3
11:25 1024 30.24 853 25.19 14.3 57.8 40 0.9 33.6
11:30 1024 30.24 853 25.19 14 57.1 40 0.7 33.3
11:35 1024 30.24 853 25.19 13.6 56.5 39 0.2 32.3
11:40 1024 30.24 853 25.19 14 57.1 37 -0.3 31.5
11:45 1024 30.24 853 25.19 14.6 58.3 36 -0 31.9
11:50 1024 30.24 853 25.19 15.1 59.1 35 -0.4 31.4
11:55 1024 30.24 853 25.19 15.4 59.8 35 0 32
12:00 1024 30.24 853 25.19 15.2 59.4 36 0.4 32.7
12:05 1024 30.24 853 25.19 15.3 59.6 31 -1.8 28.8
12:10 1023 30.21 853 25.19 15.7 60.3 30 -1.6 29.1
12:15 1023 30.21 853 25.19 15.6 60.2 30 -1.6 29.2
12:20 1023 30.21 853 25.19 15.6 60.1 30 -1.9 28.6
12:25 1023 30.21 853 25.19 15.7 60.3 31 -1.2 29.9
12:30 1024 30.24 853 25.19 15.6 60.1 32 -0.9 30.4
12:35 1023 30.21 853 25.19 15.7 60.2 34 0 32
12:40 1023 30.21 853 25.19 15.3 59.6 35 0 32.1
12:45 1023 30.21 853 25.19 15 59.1 35 -0.3 31.5
12:50 1023 30.21 852 25.16 15 59 35 -0.2 31.6
12:55 1023 30.21 852 25.16 15.1 59.2 34 -0.6 30.9
13:00 1023 30.21 852 25.16 15.7 60.3 31 -1.1 30.1
13:05 1023 30.21 852 25.16 16.1 60.9 30 -1.2 29.8
13:10 1023 30.21 852 25.16 16.2 61.1 32 -0.6 30.9
13:15 1023 30.21 852 25.16 16 60.7 30 -1.3 29.7
13:20 1023 30.21 852 25.16 15.8 60.4 31 -1.4 29.5
13:25 1023 30.21 852 25.16 15.7 60.2 32 -1 30.1
13:30 1023 30.21 852 25.16 15.9 60.6 32 -0.7 30.7
13:35 1023 30.21 852 25.16 16.1 60.9 33 -0.3 31.5
13:40 1023 30.21 852 25.16 15.7 60.2 32 -0.7 30.8
13:45 1023 30.21 852 25.16 15.9 60.5 32 -0.7 30.7
13:50 1023 30.21 852 25.16 16.1 60.9 32 -0.3 31.4
13:55 1023 30.21 852 25.16 16.3 61.4 32 -0.4 31.3
14:00 1023 30.21 852 25.16 16.5 61.7 31 -0.5 31.1
14:05 1023 30.21 852 25.16 16.5 61.6 31 -0.5 31.1
14:10 1022 30.18 852 25.16 16.6 61.8 31 -0.7 30.7
14:15 1022 30.18 852 25.16 16.8 62.3 29 -1 30.2
14:20 1022 30.18 851 25.13 16.8 62.2 28 -1.9 28.6
14:25 1022 30.18 851 25.13 16.8 62.2 28 -1.5 29.3
14:30 1022 30.18 851 25.13 17.1 62.7 28 -1.4 29.5
14:35 1022 30.18 851 25.13 16.8 62.3 28 -1.5 29.3
14:40 1022 30.18 851 25.13 16.7 62.1 28 -1.7 28.9
14:45 1022 30.18 851 25.13 16.8 62.2 28 -1.5 29.2
14:50 1022 30.18 851 25.13 16.8 62.3 29 -1.2 29.9
14:55 1022 30.18 851 25.13 16.5 61.7 28 -1.9 28.5
15:00 1022 30.18 851 25.13 16.2 61.1 28 -2.2 28.1
15:05 1022 30.18 851 25.13 15.6 60.2 31 -1.5 29.3
15:10 1022 30.18 852 25.16 15 59.1 30 -2.2 28
15:15 1022 30.18 851 25.13 15.1 59.1 31 -2 28.5
15:20 1022 30.18 851 25.13 15 59 32 -1.7 29
15:25 1022 30.18 851 25.13 14.5 58.1 32 -1.8 28.7
15:30 1022 30.18 851 25.13 14.4 57.9 32 -1.9 28.6
15:35 1022 30.18 851 25.13 14.3 57.7 32 -2.2 28.1
15:40 1022 30.18 851 25.13 14.2 57.6 32 -2.2 28.1
15:45 1022 30.18 852 25.16 14.2 57.5 32 -2.4 27.7
15:50 1022 30.18 851 25.13 14 57.2 32 -2.3 27.8
15:55 1022 30.18 851 25.13 14.2 57.6 30 -2.9 26.8
16:00 1022 30.18 851 25.13 14.4 57.8 31 -2.6 27.3
16:05 1022 30.18 851 25.13 14.3 57.8 31 -2.5 27.5
16:10 1022 30.18 851 25.13 14.2 57.5 32 -2.4 27.8
16:15 1022 30.18 851 25.13 14 57.3 32 -2.4 27.8
16:20 1022 30.18 851 25.13 14 57.2 33 -2 28.4
16:25 1022 30.18 851 25.13 13.8 56.9 33 -2.2 28
16:30 1022 30.18 851 25.13 13.8 56.8 32 -2.4 27.6
16:35 1022 30.18 851 25.13 13.7 56.7 32 -2.5 27.5
16:40 1022 30.18 851 25.13 13.6 56.4 33 -2.2 28
16:45 1022 30.18 851 25.13 13.3 56 33 -2.4 27.7
16:50 1022 30.18 851 25.13 13.2 55.7 33 -2.6 27.4
16:55 1022 30.18 851 25.13 13.2 55.7 33 -2.6 27.3
17:00 1022 30.18 851 25.13 13 55.4 34 -2.4 27.6
17:05 1022 30.18 851 25.13 12.7 54.8 34 -2.8 27
17:10 1022 30.18 851 25.13 12.6 54.6 34 -2.9 26.7
17:15 1022 30.18 851 25.13 12.6 54.6 33 -3 26.5
17:20 1022 30.18 851 25.13 12.4 54.3 34 -2.9 26.9
17:25 1022 30.18 851 25.13 12.2 53.9 35 -2.9 26.8
17:30 1022 30.18 851 25.13 12 53.5 35 -2.8 27
17:35 1022 30.18 851 25.13 11.8 53.3 34 -3.3 26
17:40 1022 30.18 851 25.13 11.8 53.2 35 -3.2 26.2
17:45 1022 30.18 851 25.13 11.6 52.9 35 -3.4 25.8
17:50 1022 30.18 851 25.13 11.5 52.6 35 -3.6 25.6
17:55 1022 30.18 851 25.13 11.5 52.8 34 -3.7 25.3
18:00 1022 30.18 851 25.13 11.8 53.3 33 -3.9 25
18:05 1022 30.18 851 25.13 12.1 53.8 32 -4 24.8
18:10 1022 30.18 851 25.13 12.3 54.1 32 -3.8 25.1
18:15 1022 30.18 851 25.13 12.4 54.3 32 -3.8 25.1
18:20 1022 30.18 851 25.13 12.5 54.5 32 -3.7 25.4
18:25 1022 30.18 851 25.13 12.4 54.4 33 -3.5 25.8
18:30 1022 30.18 851 25.13 12.3 54.2 33 -3.6 25.5
18:35 1022 30.18 851 25.13 12.2 53.9 33 -3.6 25.5
18:40 1022 30.18 851 25.13 11.9 53.5 34 -3.4 26
18:45 1022 30.18 851 25.13 11.6 52.9 35 -3.2 26.3
18:50 1022 30.18 851 25.13 11.4 52.6 35 -3.6 25.6
18:55 1022 30.18 851 25.13 11.6 52.9 34 -3.6 25.6
19:00 1022 30.18 851 25.13 11.5 52.7 35 -3.4 25.9
19:05 1022 30.18 851 25.13 11.3 52.3 36 -3.3 26.1
19:10 1022 30.18 851 25.13 11.1 52 35 -3.6 25.6
19:15 1022 30.18 851 25.13 11.1 51.9 35 -3.7 25.4
19:20 1022 30.18 851 25.13 11.1 51.9 35 -3.8 25.2
19:25 1022 30.18 851 25.13 11.2 52.1 34 -3.9 25
19:30 1022 30.18 851 25.13 11.4 52.5 34 -3.8 25.2
19:35 1022 30.18 851 25.13 11.4 52.4 35 -3.5 25.7
19:40 1022 30.18 851 25.13 11.1 52 36 -3.4 25.9
19:45 1022 30.18 851 25.13 11.1 52 35 -3.8 25.1
19:50 1022 30.18 851 25.13 11.2 52.2 34 -3.9 25
19:55 1022 30.18 851 25.13 11.4 52.5 34 -3.7 25.3
20:00 1022 30.18 851 25.13 11.3 52.4 35 -3.5 25.6
20:05 1022 30.18 851 25.13 11.2 52.2 34 -3.8 25.1
20:10 1022 30.18 851 25.13 11.4 52.5 34 -3.9 24.9
20:15 1022 30.18 851 25.13 11.6 52.8 34 -3.7 25.3
20:20 1022 30.18 851 25.13 11.5 52.6 34 -3.9 24.9
20:25 1022 30.18 851 25.13 11.5 52.8 33 -4 24.9
20:30 1022 30.18 851 25.13 11.7 53 33 -4 24.8
20:35 1022 30.18 851 25.13 11.6 52.9 34 -3.8 25.2
20:40 1022 30.18 851 25.13 11.6 52.8 33 -3.9 24.9
20:45 1022 30.18 851 25.13 11.6 52.9 33 -3.9 24.9
20:50 1022 30.18 851 25.13 11.6 52.9 34 -3.6 25.5
20:55 1022 30.18 851 25.13 11.4 52.5 34 -3.8 25.2
21:00 1022 30.18 851 25.13 11.5 52.6 34 -3.9 24.9
21:05 1022 30.18 851 25.13 11.4 52.5 34 -3.7 25.3
21:10 1022 30.18 851 25.13 11.3 52.3 35 -3.8 25.2
21:15 1022 30.18 851 25.13 11.1 52 35 -3.8 25.1
21:20 1022 30.18 851 25.13 11.4 52.4 35 -3.7 25.4
21:25 1022 30.18 851 25.13 11.4 52.4 34 -4 24.9
21:30 1022 30.18 851 25.13 11.3 52.4 35 -3.7 25.4
21:35 1022 30.18 851 25.13 11.2 52.1 35 -3.8 25.1
21:40 1022 30.18 851 25.13 11.1 52 35 -3.7 25.3
21:45 1022 30.18 851 25.13 11.1 51.9 35 -3.9 25
21:50 1022 30.18 851 25.13 11.4 52.5 33 -4.3 24.2
21:55 1022 30.18 851 25.13 11.8 53.2 33 -4 24.8
22:00 1022 30.18 851 25.13 11.6 52.9 33 -4 24.9
22:05 1022 30.18 851 25.13 11.5 52.7 33 -4.1 24.5
22:10 1022 30.18 851 25.13 11.7 53.1 33 -4.1 24.6
22:15 1022 30.18 851 25.13 11.7 53.1 33 -3.8 25.2
22:20 1022 30.18 851 25.13 11.6 52.8 32 -4.4 24.1
22:25 1022 30.18 851 25.13 11.9 53.3 33 -4 24.7
22:30 1022 30.18 851 25.13 11.8 53.2 32 -4.3 24.2
22:35 1022 30.18 851 25.13 12 53.5 32 -4.2 24.4
22:40 1022 30.18 851 25.13 12.1 53.8 32 -4.1 24.6
22:45 1022 30.18 851 25.13 11.9 53.5 33 -4 24.9
22:50 1022 30.18 851 25.13 11.7 53 33 -3.9 24.9
22:55 1022 30.18 851 25.13 11.2 52.2 34 -3.9 25
23:00 1022 30.18 851 25.13 11.1 51.9 34 -4.3 24.3
23:05 1022 30.18 851 25.13 11.1 52 34 -4.1 24.6
23:10 1022 30.18 851 25.13 11.2 52.1 33 -4.4 24.1
23:15 1022 30.18 851 25.13 11.6 52.8 33 -4.2 24.4
23:20 1022 30.18 851 25.13 11.6 52.9 33 -4.3 24.3
23:25 1022 30.18 851 25.13 11.6 52.8 33 -4.1 24.6
23:30 1021 30.15 851 25.13 11.5 52.6 33 -4.2 24.5
23:35 1021 30.15 851 25.13 11.4 52.6 34 -4 24.7
23:40 1021 30.15 851 25.13 11.2 52.1 34 -4 24.8
23:45 1021 30.15 851 25.13 10.9 51.7 35 -3.9 25
23:50 1021 30.15 851 25.13 10.8 51.4 35 -4.1 24.6
23:55 1021 30.15 851 25.13 10.7 51.2 35 -4 24.7
24:00 1021 30.15 851 25.13 10.8 51.4 35 -4 24.8